This is the latest recevied weather packets stored in our database for station/object DG3RAP-11. If no packets are shown the sender has not sent any weather packets the latest 10 day(s).
| Time | Temp. | Humidity | Pressure | Rain* | Wind** | Luminosity | Snow |
|---|---|---|---|---|---|---|---|
| 1777649763 | 20.56° C | 35% | 1024.7 hPa | 0 mm | - | - | - |
| 1777649223 | 20° C | 34% | 1024.8 hPa | 0 mm | - | - | - |
| 1777648683 | 20° C | 36% | 1024.7 hPa | 0 mm | - | - | - |
| 1777648143 | 21.67° C | 34% | 1025.1 hPa | 0 mm | - | - | - |
| 1777646163 | 21.67° C | 34% | 1025.2 hPa | 0 mm | - | - | - |
| 1777645623 | 21.11° C | 34% | 1025.4 hPa | 0 mm | - | - | - |
| 1777645083 | 20.56° C | 34% | 1025.5 hPa | 0 mm | - | - | - |
| 1777644543 | 19.44° C | 34% | 1025.5 hPa | 0 mm | - | - | - |
| 1777643643 | 21.11° C | 33% | 1025.7 hPa | 0 mm | - | - | - |
| 1777642563 | 20.56° C | 33% | 1025.8 hPa | 0 mm | - | - | - |
| 1777642023 | 20.56° C | 34% | 1025.8 hPa | 0 mm | - | - | - |
| 1777641483 | 20.56° C | 34% | 1025.7 hPa | 0 mm | - | - | - |
| 1777637883 | 18.89° C | 35% | 1026.6 hPa | 0 mm | - | - | - |
| 1777636443 | 18.33° C | 36% | 1026.8 hPa | 0 mm | - | - | - |
| 1777635363 | 18.33° C | 35% | 1027 hPa | 0 mm | - | - | - |
| 1777634823 | 18.33° C | 36% | 1026.9 hPa | 0 mm | - | - | - |
| 1777634283 | 17.22° C | 38% | 1027.1 hPa | 0 mm | - | - | - |
| 1777633743 | 17.78° C | 35% | 1027.1 hPa | 0 mm | - | - | - |
| 1777633203 | 16.67° C | 38% | 1027.3 hPa | 0 mm | - | - | - |
| 1777632843 | 17.22° C | 37% | 1027.2 hPa | 0 mm | - | - | - |
| 1777631763 | 17.22° C | 37% | 1027.4 hPa | 0 mm | - | - | - |
| 1777631223 | 16.11° C | 39% | 1027.4 hPa | 0 mm | - | - | - |
| 1777630683 | 16.67° C | 38% | 1027.5 hPa | 0 mm | - | - | - |
| 1777630143 | 15.56° C | 39% | 1027.3 hPa | 0 mm | - | - | - |
| 1777629603 | 16.11° C | 37% | 1027.6 hPa | 0 mm | - | - | - |
* Rain latest hour (hover to see other rain measurements)
** Current wind speed in m/s (hover to see current wind gust speed)